Time;durP1;ratioP1;P1;durP2;ratioP2;P2;SDS_P1;SDS_P2;PMS_P1;PMS_P2;Temp;Humidity;BMP_temperature;BMP_pressure;BME280_temperature;BME280_humidity;BME280_pressure;Samples;Min_cycle;Max_cycle;Signal;HPM_P1;HPM_P2
2021/11/19 00:02:14;;;;;;;80.53;37.58;;;3.40;78.70;;;;;;5035634;28;20345;-43
2021/11/19 00:04:41;;;;;;;82.22;36.95;;;3.40;78.80;;;;;;5035967;28;20390;-36
2021/11/19 00:07:08;;;;;;;76.05;34.38;;;3.50;78.90;;;;;;5035464;28;20375;-36
2021/11/19 00:09:34;;;;;;;72.32;34.15;;;3.50;79.30;;;;;;5035987;28;20052;-37
2021/11/19 00:12:00;;;;;;;77.07;34.63;;;3.50;79.40;;;;;;5035245;28;20042;-36
2021/11/19 00:14:27;;;;;;;77.93;36.10;;;3.50;79.60;;;;;;5035364;28;20357;-39
2021/11/19 00:16:57;;;;;;;84.60;36.35;;;3.60;80.10;;;;;;5035447;28;20029;-37
2021/11/19 00:19:25;;;;;;;74.57;33.10;;;3.60;80.20;;;;;;5035836;28;20075;-37
2021/11/19 00:21:51;;;;;;;76.10;33.38;;;3.60;80.20;;;;;;5035288;28;20092;-36
2021/11/19 00:24:18;;;;;;;75.07;34.85;;;3.70;80.40;;;;;;5035400;28;20022;-38
2021/11/19 00:26:44;;;;;;;83.80;37.20;;;3.70;80.50;;;;;;5035153;28;20116;-36
2021/11/19 00:29:12;;;;;;;83.47;35.97;;;3.70;80.50;;;;;;5035668;28;20056;-40
2021/11/19 00:31:39;;;;;;;88.55;37.72;;;3.80;80.60;;;;;;5035345;28;20037;-36
2021/11/19 00:34:05;;;;;;;78.63;35.55;;;3.80;80.70;;;;;;5035422;28;20398;-36
2021/11/19 00:36:33;;;;;;;82.72;36.60;;;3.80;80.70;;;;;;5035138;28;20352;-38
2021/11/19 00:39:01;;;;;;;87.22;37.50;;;3.90;80.90;;;;;;5035288;28;20466;-39
2021/11/19 00:41:28;;;;;;;87.03;36.90;;;3.90;81.40;;;;;;5034857;28;20117;-36
2021/11/19 00:43:54;;;;;;;81.97;34.15;;;3.90;81.00;;;;;;5035268;28;20045;-39
2021/11/19 00:46:20;;;;;;;75.53;32.63;;;4.00;81.10;;;;;;5035053;28;20036;-35
2021/11/19 00:48:46;;;;;;;87.50;35.97;;;4.00;81.10;;;;;;5035398;28;20313;-38
2021/11/19 00:51:38;;;;;;;86.45;37.97;;;4.10;81.20;;;;;;5038584;28;20097;-39
2021/11/19 00:54:05;;;;;;;83.47;35.80;;;4.10;81.20;;;;;;5038721;28;20064;-38
2021/11/19 00:56:35;;;;;;;93.85;37.50;;;4.10;81.10;;;;;;5038561;28;20033;-39
2021/11/19 00:59:02;;;;;;;88.90;37.07;;;4.20;81.20;;;;;;5038933;28;20045;-36
2021/11/19 01:01:37;;;;;;;86.95;37.10;;;4.20;81.00;;;;;;5038283;28;20057;-39
2021/11/19 01:04:05;;;;;;;87.35;39.10;;;4.20;81.00;;;;;;5038529;28;20030;-36
2021/11/19 01:06:31;;;;;;;86.47;36.22;;;4.20;80.90;;;;;;5038303;28;20406;-39
2021/11/19 01:08:57;;;;;;;85.65;36.25;;;4.20;80.90;;;;;;5038804;28;20033;-36
2021/11/19 01:11:25;;;;;;;85.10;37.35;;;4.30;80.90;;;;;;5038411;28;20512;-36
2021/11/19 01:13:54;;;;;;;90.38;37.42;;;4.30;80.90;;;;;;5038521;28;20040;-36
2021/11/19 01:16:42;;;;;;;86.18;38.22;;;4.30;80.90;;;;;;5038161;28;20056;-36
2021/11/19 01:19:18;;;;;;;96.57;38.15;;;4.30;80.80;;;;;;5038405;28;20033;-37
2021/11/19 01:21:49;;;;;;;98.75;39.25;;;4.40;80.90;;;;;;5038001;28;20026;-37
2021/11/19 01:24:16;;;;;;;96.20;38.78;;;4.40;81.00;;;;;;5038664;28;20026;-39
2021/11/19 01:26:43;;;;;;;95.95;39.20;;;4.40;80.90;;;;;;5037798;28;20038;-41
2021/11/19 01:29:13;;;;;;;103.07;39.15;;;4.30;81.00;;;;;;5038135;28;20035;-37
2021/11/19 01:31:52;;;;;;;103.88;39.17;;;4.40;81.20;;;;;;5037995;28;20033;-40
2021/11/19 01:34:18;;;;;;;98.38;39.88;;;4.40;81.30;;;;;;5038561;28;20322;-39
2021/11/19 01:36:45;;;;;;;93.70;40.47;;;4.40;81.30;;;;;;5037632;28;20508;-39
2021/11/19 01:39:14;;;;;;;101.68;41.78;;;4.40;81.40;;;;;;5038353;28;20049;-36
2021/11/19 01:41:47;;;;;;;93.22;39.22;;;4.40;81.40;;;;;;5037582;28;20160;-36
2021/11/19 01:44:19;;;;;;;93.38;37.47;;;4.40;81.50;;;;;;5038134;28;20139;-35
2021/11/19 01:46:47;;;;;;;101.20;40.20;;;4.40;81.50;;;;;;5037457;28;20329;-39
2021/11/19 01:49:13;;;;;;;99.00;39.80;;;4.50;81.60;;;;;;5037934;28;20045;-38
2021/11/19 01:51:49;;;;;;;94.95;38.38;;;4.50;81.60;;;;;;5037747;28;20034;-40
2021/11/19 01:54:22;;;;;;;107.60;39.15;;;4.50;81.80;;;;;;5038070;28;20104;-37
2021/11/19 01:56:54;;;;;;;99.70;38.88;;;4.50;82.00;;;;;;5037221;28;20329;-36
2021/11/19 01:59:34;;;;;;;94.10;38.78;;;4.50;82.10;;;;;;5037401;28;20048;-36
2021/11/19 02:02:11;;;;;;;99.28;38.05;;;4.50;82.30;;;;;;5036306;28;20029;-39
2021/11/19 02:04:41;;;;;;;98.32;38.42;;;4.50;82.40;;;;;;5037888;28;20036;-36
2021/11/19 02:07:29;;;;;;;88.55;34.00;;;4.50;82.50;;;;;;5037330;28;20317;-36
2021/11/19 02:10:18;;;;;;;75.60;32.55;;;4.50;82.60;;;;;;5037606;28;20033;-36
2021/11/19 02:12:58;;;;;;;102.38;37.92;;;4.60;82.50;;;;;;5037123;28;20045;-38
2021/11/19 02:15:29;;;;;;;89.93;35.65;;;4.60;82.70;;;;;;5037016;28;20045;-38
2021/11/19 02:18:01;;;;;;;82.63;34.72;;;4.60;82.80;;;;;;5036830;28;20025;-39
2021/11/19 02:20:37;;;;;;;92.10;37.65;;;4.60;82.80;;;;;;5036998;28;20040;-36
2021/11/19 02:23:10;;;;;;;94.35;36.15;;;4.70;83.00;;;;;;5036645;28;20274;-36
2021/11/19 02:25:44;;;;;;;89.35;35.33;;;4.70;83.00;;;;;;5037322;28;20426;-36
2021/11/19 02:28:17;;;;;;;93.50;34.88;;;4.70;82.90;;;;;;5036793;28;20030;-40
2021/11/19 02:31:24;;;;;;;95.50;36.00;;;4.70;83.00;;;;;;5036842;28;20038;-39
2021/11/19 02:33:51;;;;;;;94.53;38.00;;;4.80;82.60;;;;;;5034718;28;20036;-40
2021/11/19 02:36:29;;;;;;;89.00;35.60;;;4.80;82.90;;;;;;5034354;28;20077;-37
2021/11/19 02:39:00;;;;;;;89.30;34.97;;;4.80;82.90;;;;;;5035938;28;20326;-38
2021/11/19 02:41:27;;;;;;;;;;;4.80;82.90;;;;;;5036969;28;20330;-36
2021/11/19 02:43:59;;;;;;;89.72;34.63;;;4.80;82.40;;;;;;5035581;28;19928;-36
2021/11/19 02:46:34;;;;;;;92.05;36.13;;;4.80;82.80;;;;;;5036662;28;20133;-36
2021/11/19 02:48:59;;;;;;;78.85;32.75;;;4.80;82.90;;;;;;5036979;28;20321;-36
2021/11/19 02:51:27;;;;;;;90.05;35.50;;;4.80;82.90;;;;;;5036303;28;20029;-37
2021/11/19 02:53:54;;;;;;;91.70;34.75;;;4.90;82.90;;;;;;5036679;28;20040;-36
2021/11/19 02:56:21;;;;;;;79.30;33.25;;;4.90;82.90;;;;;;5036212;28;20064;-38
2021/11/19 02:58:53;;;;;;;81.85;34.00;;;4.90;82.90;;;;;;5036488;28;20033;-38
2021/11/19 03:01:23;;;;;;;72.05;30.20;;;4.90;82.70;;;;;;5036028;28;20034;-36
2021/11/19 03:03:59;;;;;;;75.22;31.73;;;5.00;82.70;;;;;;5036590;28;20080;-39
2021/11/19 03:06:25;;;;;;;70.82;29.88;;;5.00;82.40;;;;;;5035981;28;20044;-39
2021/11/19 03:08:50;;;;;;;80.03;33.58;;;5.00;82.30;;;;;;5036540;28;20030;-36
2021/11/19 03:11:17;;;;;;;79.18;31.95;;;5.00;82.30;;;;;;5036155;28;20298;-36
2021/11/19 03:13:44;;;;;;;82.55;33.90;;;5.00;82.20;;;;;;5036182;28;20029;-39
2021/11/19 03:16:10;;;;;;;80.45;32.88;;;5.00;82.40;;;;;;5035903;28;20030;-37
2021/11/19 03:18:37;;;;;;;75.82;32.42;;;5.10;82.40;;;;;;5036255;28;20034;-36
2021/11/19 03:21:07;;;;;;;79.00;32.75;;;5.00;82.40;;;;;;5036062;28;20310;-37
2021/11/19 03:23:34;;;;;;;88.57;34.27;;;5.10;82.70;;;;;;5036161;28;20022;-36
2021/11/19 03:26:02;;;;;;;73.97;32.42;;;5.10;82.70;;;;;;5035835;28;20266;-39
2021/11/19 03:28:30;;;;;;;72.22;30.05;;;5.10;82.70;;;;;;5035964;28;20306;-41
2021/11/19 03:31:01;;;;;;;70.75;29.63;;;5.10;82.60;;;;;;5036135;28;20038;-37
2021/11/19 03:33:30;;;;;;;79.70;34.22;;;5.10;82.50;;;;;;5035811;28;20025;-39
2021/11/19 03:35:56;;;;;;;74.43;30.55;;;5.20;82.40;;;;;;5035838;28;20124;-39
2021/11/19 03:38:25;;;;;;;66.97;28.15;;;5.20;82.20;;;;;;5035817;28;20410;-41
2021/11/19 03:40:53;;;;;;;72.18;30.08;;;5.20;82.10;;;;;;5035867;28;20041;-36
2021/11/19 03:43:26;;;;;;;80.07;30.33;;;5.20;81.90;;;;;;5035599;28;20124;-38
2021/11/19 03:45:55;;;;;;;73.85;32.22;;;5.20;82.20;;;;;;5035829;28;20026;-36
2021/11/19 03:48:22;;;;;;;70.43;31.77;;;5.30;81.60;;;;;;5035546;28;20037;-35
2021/11/19 03:50:52;;;;;;;82.85;31.73;;;5.30;81.50;;;;;;5035670;28;20087;-37
2021/11/19 03:53:20;;;;;;;83.70;35.50;;;5.30;81.30;;;;;;5035769;28;20037;-39
2021/11/19 03:55:49;;;;;;;76.57;34.88;;;5.30;81.00;;;;;;5035451;28;20125;-40
2021/11/19 03:58:17;;;;;;;82.95;34.92;;;5.20;80.70;;;;;;5035585;28;20090;-37
2021/11/19 04:00:48;;;;;;;75.90;34.40;;;5.20;80.70;;;;;;5035570;28;20021;-39
2021/11/19 04:03:15;;;;;;;77.10;32.90;;;5.10;80.60;;;;;;5035451;28;20310;-37
2021/11/19 04:05:44;;;;;;;98.07;36.67;;;5.10;80.60;;;;;;5035567;28;20041;-39
2021/11/19 04:08:09;;;;;;;83.88;35.83;;;5.10;80.60;;;;;;5035427;28;20033;-36
2021/11/19 04:10:36;;;;;;;64.88;31.75;;;5.10;80.60;;;;;;5035471;28;20035;-37
2021/11/19 04:13:02;;;;;;;76.28;34.65;;;5.00;80.60;;;;;;5035198;28;20496;-37
2021/11/19 04:15:32;;;;;;;82.10;36.42;;;5.00;80.70;;;;;;5035541;28;20040;-39
2021/11/19 04:17:58;;;;;;;77.68;34.15;;;5.00;80.70;;;;;;5034996;28;20112;-36
2021/11/19 04:20:26;;;;;;;86.57;36.42;;;5.00;80.70;;;;;;5035419;28;20026;-39
2021/11/19 04:22:52;;;;;;;83.63;34.20;;;4.90;80.70;;;;;;5035296;28;20344;-37
2021/11/19 04:25:21;;;;;;;73.28;32.80;;;4.90;80.70;;;;;;5037869;28;20025;-38
2021/11/19 04:27:47;;;;;;;83.57;36.05;;;4.90;80.70;;;;;;5039095;28;20021;-37
2021/11/19 04:30:16;;;;;;;79.00;33.47;;;4.90;80.70;;;;;;5039441;28;20029;-36
2021/11/19 04:32:43;;;;;;;81.35;33.70;;;4.90;80.70;;;;;;5038824;28;20052;-36
2021/11/19 04:35:10;;;;;;;70.38;32.85;;;4.80;80.60;;;;;;5038867;28;20109;-38
2021/11/19 04:37:35;;;;;;;70.30;32.03;;;4.80;80.60;;;;;;5038694;28;20036;-36
2021/11/19 04:40:01;;;;;;;81.20;36.42;;;4.80;80.70;;;;;;5039078;28;20037;-39
2021/11/19 04:42:27;;;;;;;74.30;32.60;;;4.80;80.80;;;;;;5038643;28;20326;-39
2021/11/19 04:44:53;;;;;;;76.07;32.15;;;4.80;81.00;;;;;;5038611;28;20380;-40
2021/11/19 04:47:18;;;;;;;79.00;34.40;;;4.80;81.10;;;;;;5038602;28;20029;-37
2021/11/19 04:49:44;;;;;;;78.18;35.05;;;4.80;81.20;;;;;;5039253;28;20033;-40
2021/11/19 04:52:12;;;;;;;82.47;33.72;;;4.80;81.20;;;;;;5039072;28;20029;-39
2021/11/19 04:54:38;;;;;;;73.15;33.00;;;4.80;81.20;;;;;;5039220;28;20037;-40
2021/11/19 04:57:05;;;;;;;69.30;31.08;;;4.80;81.30;;;;;;5038322;28;20030;-36
2021/11/19 04:59:32;;;;;;;82.30;34.75;;;4.90;81.30;;;;;;5038693;28;20108;-36
2021/11/19 05:02:02;;;;;;;67.05;29.73;;;4.90;81.50;;;;;;5038125;28;20032;-39
2021/11/19 05:04:28;;;;;;;78.97;35.50;;;4.90;81.50;;;;;;5038982;28;20433;-35
2021/11/19 05:06:54;;;;;;;75.90;32.47;;;4.90;81.50;;;;;;5038127;28;20339;-36
2021/11/19 05:09:20;;;;;;;67.43;30.60;;;4.90;81.70;;;;;;5038738;28;20030;-36
2021/11/19 05:11:49;;;;;;;68.68;30.98;;;4.90;81.80;;;;;;5038122;28;20112;-36
2021/11/19 05:14:17;;;;;;;66.90;29.27;;;4.90;81.90;;;;;;5038712;28;20398;-36
2021/11/19 05:16:43;;;;;;;70.90;32.60;;;5.00;81.90;;;;;;5037893;28;20033;-35
2021/11/19 05:19:08;;;;;;;75.28;32.65;;;5.00;81.80;;;;;;5038413;28;20091;-39
2021/11/19 05:21:34;;;;;;;61.35;30.20;;;5.00;81.80;;;;;;5037494;28;20440;-39
2021/11/19 05:24:01;;;;;;;69.68;32.67;;;5.10;81.90;;;;;;5037945;28;20091;-43
2021/11/19 05:26:30;;;;;;;67.00;33.10;;;5.10;82.00;;;;;;5037586;28;20053;-39
2021/11/19 05:28:57;;;;;;;76.85;35.25;;;5.10;82.00;;;;;;5037918;28;20029;-37
2021/11/19 05:31:23;;;;;;;62.63;25.42;;;5.10;82.20;;;;;;5037529;28;20061;-39
2021/11/19 05:33:50;;;;;;;58.50;29.15;;;5.10;82.20;;;;;;5037863;28;20030;-36
2021/11/19 05:36:16;;;;;;;67.97;32.53;;;5.10;82.20;;;;;;5036220;28;20044;-39
2021/11/19 05:38:42;;;;;;;71.90;32.40;;;5.20;82.20;;;;;;5037660;28;20420;-39
2021/11/19 05:41:13;;;;;;;59.35;29.02;;;5.20;82.20;;;;;;5037578;28;20034;-41
2021/11/19 05:43:42;;;;;;;57.20;27.58;;;5.20;82.20;;;;;;5037544;28;20050;-37
2021/11/19 05:46:09;;;;;;;65.93;30.17;;;5.20;82.30;;;;;;5037354;28;20025;-41
2021/11/19 05:48:34;;;;;;;63.45;29.67;;;5.20;82.30;;;;;;5037716;28;20148;-41
2021/11/19 05:51:01;;;;;;;69.82;32.53;;;5.30;82.40;;;;;;5037762;28;20069;-38
2021/11/19 05:53:26;;;;;;;90.20;39.30;;;5.30;82.30;;;;;;5037466;28;20025;-41
2021/11/19 05:55:52;;;;;;;106.05;44.10;;;5.30;82.20;;;;;;5037558;28;20049;-37
2021/11/19 05:58:20;;;;;;;62.13;28.55;;;5.30;82.00;;;;;;5037080;28;20025;-40
2021/11/19 06:00:56;;;;;;;75.85;31.05;;;5.40;82.10;;;;;;5037107;28;20033;-37
2021/11/19 06:03:23;;;;;;;55.83;28.48;;;5.40;82.10;;;;;;5036707;28;20022;-38
2021/11/19 06:05:48;;;;;;;62.28;30.08;;;5.40;82.10;;;;;;5037428;28;20030;-38
2021/11/19 06:08:15;;;;;;;73.57;35.58;;;5.40;82.00;;;;;;5036967;28;20103;-40
2021/11/19 06:10:49;;;;;;;64.57;30.17;;;5.50;81.90;;;;;;5036918;28;20121;-36
2021/11/19 06:13:16;;;;;;;62.22;27.27;;;5.50;81.80;;;;;;5037037;28;20021;-36
2021/11/19 06:15:54;;;;;;;65.95;29.75;;;5.50;81.90;;;;;;5037070;28;20064;-39
2021/11/19 06:18:25;;;;;;;59.75;28.13;;;5.50;82.00;;;;;;5036971;28;20029;-37
2021/11/19 06:20:57;;;;;;;59.10;28.98;;;5.50;82.20;;;;;;5036770;28;20034;-40
2021/11/19 06:23:26;;;;;;;70.20;33.58;;;5.50;82.20;;;;;;5036299;28;20029;-40
2021/11/19 06:25:53;;;;;;;66.50;30.20;;;5.50;82.20;;;;;;5036903;28;20065;-36
2021/11/19 06:28:26;;;;;;;61.05;28.20;;;5.60;82.10;;;;;;5036621;28;20307;-37
2021/11/19 06:30:52;;;;;;;66.75;30.33;;;5.60;82.10;;;;;;5036895;28;20071;-37
2021/11/19 06:33:19;;;;;;;69.35;31.35;;;5.60;82.10;;;;;;5036392;28;20440;-37
2021/11/19 06:35:46;;;;;;;63.80;30.67;;;5.60;82.20;;;;;;5036743;28;20041;-37
2021/11/19 06:38:11;;;;;;;71.65;34.42;;;5.60;82.30;;;;;;5036167;28;20029;-41
2021/11/19 06:40:37;;;;;;;55.28;25.75;;;5.70;82.30;;;;;;5036091;28;20036;-41
2021/11/19 06:43:04;;;;;;;68.35;29.63;;;5.70;82.30;;;;;;5036020;28;20433;-37
2021/11/19 06:45:31;;;;;;;62.92;28.08;;;5.70;82.20;;;;;;5036029;28;20033;-37
2021/11/19 06:47:58;;;;;;;68.53;29.73;;;5.80;82.20;;;;;;5035319;28;20022;-36
2021/11/19 06:50:27;;;;;;;49.35;25.88;;;5.90;82.30;;;;;;5036699;28;20037;-38
2021/11/19 06:52:52;;;;;;;58.60;28.27;;;5.90;82.20;;;;;;5036023;28;20079;-40
2021/11/19 06:55:18;;;;;;;52.42;26.05;;;6.00;82.40;;;;;;5035784;28;20422;-40
2021/11/19 06:57:44;;;;;;;58.08;27.95;;;6.10;82.20;;;;;;5035728;28;20021;-40
2021/11/19 07:00:14;;;;;;;62.13;28.27;;;6.10;82.10;;;;;;5035676;28;20473;-36
2021/11/19 07:02:40;;;;;;;54.15;26.48;;;6.20;81.60;;;;;;5035884;28;20017;-36
2021/11/19 07:05:06;;;;;;;60.63;26.92;;;6.30;81.40;;;;;;5036278;28;20471;-36
2021/11/19 07:07:32;;;;;;;52.70;25.80;;;6.30;80.90;;;;;;5035896;28;20360;-39
2021/11/19 07:09:58;;;;;;;51.13;25.20;;;6.40;80.60;;;;;;5035731;28;20061;-38
2021/11/19 07:12:23;;;;;;;50.38;26.25;;;6.40;80.40;;;;;;5035603;28;20349;-37
2021/11/19 07:14:49;;;;;;;56.30;27.33;;;6.40;80.30;;;;;;5036012;28;20032;-40
2021/11/19 07:17:15;;;;;;;52.42;27.20;;;6.50;80.30;;;;;;5035979;28;20423;-41
2021/11/19 07:19:41;;;;;;;53.33;27.85;;;6.50;80.30;;;;;;5035999;28;20417;-36
2021/11/19 07:22:08;;;;;;;49.47;24.70;;;6.50;80.30;;;;;;5035031;28;20038;-36
2021/11/19 07:24:36;;;;;;;44.28;24.75;;;6.50;80.10;;;;;;5037422;28;20017;-36
2021/11/19 07:27:01;;;;;;;48.95;24.75;;;6.50;80.10;;;;;;5054934;28;20043;-35
2021/11/19 07:29:28;;;;;;;48.20;24.30;;;6.60;80.00;;;;;;5055412;28;20028;-41
2021/11/19 07:31:54;;;;;;;55.53;25.98;;;6.60;79.70;;;;;;5054794;28;20040;-41
2021/11/19 07:34:19;;;;;;;57.17;27.98;;;6.60;79.20;;;;;;5055439;28;20083;-40
2021/11/19 07:36:45;;;;;;;62.58;29.58;;;6.60;79.00;;;;;;5055067;28;20405;-36
2021/11/19 07:39:11;;;;;;;55.53;26.17;;;6.60;78.90;;;;;;5055196;28;20110;-40
2021/11/19 07:41:38;;;;;;;49.63;25.10;;;6.60;79.00;;;;;;5055249;28;20291;-36
2021/11/19 07:44:05;;;;;;;51.10;27.48;;;6.50;79.10;;;;;;5055171;28;20045;-40
2021/11/19 07:46:31;;;;;;;63.72;28.95;;;6.50;79.10;;;;;;5054780;28;20444;-40
2021/11/19 07:48:58;;;;;;;70.25;33.95;;;6.50;79.10;;;;;;5055177;28;20040;-37
2021/11/19 07:51:27;;;;;;;57.88;29.50;;;6.40;79.20;;;;;;5054738;28;20112;-37
2021/11/19 07:53:54;;;;;;;61.75;29.65;;;6.50;79.40;;;;;;5055475;28;20086;-36
2021/11/19 07:56:31;;;;;;;60.47;31.73;;;6.40;79.30;;;;;;5055314;28;20322;-40
2021/11/19 07:59:06;;;;;;;49.35;27.33;;;6.40;79.30;;;;;;5055678;28;20087;-40
2021/11/19 08:01:33;;;;;;;61.03;28.02;;;6.40;80.10;;;;;;5058724;28;20041;-40
2021/11/19 08:03:58;;;;;;;57.65;27.90;;;6.30;79.70;;;;;;5058786;28;20029;-36
2021/11/19 08:06:27;;;;;;;63.97;28.20;;;6.40;79.80;;;;;;5058398;28;20099;-36
2021/11/19 08:08:53;;;;;;;62.08;29.60;;;6.40;79.80;;;;;;5059008;28;20073;-36
2021/11/19 08:11:19;;;;;;;64.85;30.02;;;6.40;79.70;;;;;;5058195;28;20110;-40
2021/11/19 08:13:45;;;;;;;58.88;27.60;;;6.40;79.60;;;;;;5059278;28;20353;-41
2021/11/19 08:16:12;;;;;;;57.63;27.75;;;6.40;79.40;;;;;;5058597;28;20079;-40
2021/11/19 08:18:46;;;;;;;54.30;24.58;;;6.40;79.40;;;;;;5058891;28;20028;-35
2021/11/19 08:21:12;;;;;;;51.42;25.50;;;6.40;79.20;;;;;;5058718;28;20488;-36
2021/11/19 08:23:42;;;;;;;56.72;28.02;;;6.40;79.30;;;;;;5059164;28;20029;-36
2021/11/19 08:26:11;;;;;;;50.60;24.95;;;6.30;79.30;;;;;;5058688;28;20065;-40
2021/11/19 08:28:38;;;;;;;46.22;24.85;;;6.30;79.20;;;;;;5059186;28;20032;-36
2021/11/19 08:31:07;;;;;;;57.25;26.52;;;6.30;79.20;;;;;;5058536;28;20417;-37
2021/11/19 08:33:33;;;;;;;47.20;24.08;;;6.30;79.40;;;;;;5057600;28;20416;-36
2021/11/19 08:35:59;;;;;;;48.65;25.20;;;6.30;79.30;;;;;;5055404;28;20310;-39
2021/11/19 08:38:26;;;;;;;51.50;26.30;;;6.20;79.20;;;;;;5058550;28;20029;-40
2021/11/19 08:40:53;;;;;;;54.80;26.67;;;6.30;79.40;;;;;;5058162;28;20036;-38
2021/11/19 08:43:26;;;;;;;52.00;25.52;;;6.30;79.30;;;;;;5058147;28;20052;-37
2021/11/19 08:45:53;;;;;;;56.85;27.23;;;6.30;79.40;;;;;;5058079;28;20395;-41
2021/11/19 08:48:26;;;;;;;49.78;26.48;;;6.30;79.40;;;;;;5058493;28;20111;-41
2021/11/19 08:50:53;;;;;;;57.55;25.52;;;6.30;79.40;;;;;;5058258;28;20123;-37
2021/11/19 08:53:19;;;;;;;55.00;26.27;;;6.30;79.40;;;;;;5058081;28;20029;-41
2021/11/19 08:55:49;;;;;;;52.92;26.98;;;6.30;79.30;;;;;;5058040;28;20120;-38
2021/11/19 08:58:17;;;;;;;63.67;27.75;;;6.30;79.30;;;;;;5057940;28;20075;-38
2021/11/19 09:00:44;;;;;;;55.00;26.77;;;6.30;79.40;;;;;;5058272;28;20348;-37
2021/11/19 09:03:11;;;;;;;57.40;27.65;;;6.20;79.40;;;;;;5058037;28;20040;-36
2021/11/19 09:05:39;;;;;;;56.75;28.52;;;6.20;79.50;;;;;;5057776;28;20142;-40
2021/11/19 09:08:07;;;;;;;59.72;28.27;;;6.20;79.70;;;;;;5057830;28;20072;-40
2021/11/19 09:10:33;;;;;;;57.25;29.48;;;6.20;79.70;;;;;;5057686;28;20051;-38
2021/11/19 09:12:59;;;;;;;58.67;28.92;;;6.20;80.00;;;;;;5057571;28;20032;-38
2021/11/19 09:15:26;;;;;;;51.03;24.75;;;6.20;80.20;;;;;;5057880;28;20025;-36
2021/11/19 09:18:13;;;;;;;55.28;25.63;;;6.10;80.20;;;;;;5057793;28;20025;-35
2021/11/19 09:20:56;;;;;;;47.90;23.60;;;6.10;80.50;;;;;;5057583;28;20482;-38
2021/11/19 09:23:36;;;;;;;49.47;24.30;;;6.10;80.60;;;;;;5057373;28;20033;-36
2021/11/19 09:26:16;;;;;;;48.72;24.45;;;6.10;80.70;;;;;;5057831;28;20029;-40
2021/11/19 09:28:46;;;;;;;46.78;23.95;;;6.00;80.80;;;;;;5057670;28;20302;-40
2021/11/19 09:31:15;;;;;;;52.17;23.75;;;6.00;81.30;;;;;;5057339;28;20324;-37
2021/11/19 09:33:41;;;;;;;50.45;23.67;;;5.90;81.60;;;;;;5057660;28;20036;-37
2021/11/19 09:36:07;;;;;;;44.40;22.00;;;5.90;81.80;;;;;;5057405;28;20033;-37
2021/11/19 09:38:33;;;;;;;44.35;23.17;;;5.90;82.00;;;;;;5057277;28;20329;-40
2021/11/19 09:41:02;;;;;;;45.88;25.00;;;5.90;82.30;;;;;;5057393;28;20033;-35
2021/11/19 09:43:51;;;;;;;53.97;25.15;;;5.80;82.50;;;;;;5056951;28;20057;-36
2021/11/19 09:47:01;;;;;;;45.15;24.23;;;5.80;83.00;;;;;;5055815;28;20089;-37
2021/11/19 09:49:55;;;;;;;46.75;22.83;;;5.80;83.30;;;;;;5055029;28;20048;-40
2021/11/19 09:52:59;;;;;;;46.40;22.65;;;5.80;83.50;;;;;;5055226;28;20052;-40
2021/11/19 09:55:57;;;;;;;49.35;25.10;;;5.80;83.70;;;;;;5056909;28;20127;-37
2021/11/19 09:58:56;;;;;;;54.58;25.60;;;5.90;83.70;;;;;;5056744;28;20041;-39
2021/11/19 10:01:39;;;;;;;46.20;24.38;;;5.80;83.90;;;;;;5056214;28;20087;-43
2021/11/19 10:04:50;;;;;;;54.25;26.42;;;5.80;84.10;;;;;;5057354;28;20033;-40
2021/11/19 10:07:23;;;;;;;55.85;25.63;;;5.90;84.00;;;;;;5056158;28;20087;-37
2021/11/19 10:10:13;;;;;;;50.45;25.75;;;5.90;84.30;;;;;;5057279;28;20033;-40
2021/11/19 10:13:00;;;;;;;56.83;27.83;;;5.90;84.40;;;;;;5056842;28;20107;-36
2021/11/19 10:15:49;;;;;;;67.45;28.27;;;5.90;84.30;;;;;;5056745;28;20086;-35
2021/11/19 10:18:32;;;;;;;53.38;27.10;;;5.90;84.40;;;;;;5056295;28;20025;-36
2021/11/19 10:21:08;;;;;;;52.80;26.38;;;6.00;84.60;;;;;;5056188;28;20033;-36
2021/11/19 10:23:41;;;;;;;55.88;29.33;;;6.00;84.60;;;;;;5055861;28;20428;-41
2021/11/19 10:29:42;;;;;;;57.67;27.10;;;6.00;84.50;;;;;;5056508;28;20048;-36
2021/11/19 10:32:10;;;;;;;53.40;28.50;;;6.00;84.80;;;;;;5056091;28;20029;-36
2021/11/19 10:34:56;;;;;;;54.13;27.75;;;6.00;85.00;;;;;;5056801;28;20290;-36
2021/11/19 10:37:43;;;;;;;56.97;27.95;;;6.10;85.10;;;;;;5055883;28;20029;-37
2021/11/19 10:40:15;;;;;;;56.65;27.48;;;6.10;85.00;;;;;;5056139;28;20025;-36
2021/11/19 10:42:51;;;;;;;52.97;28.45;;;6.10;85.10;;;;;;5055691;28;20091;-42
2021/11/19 10:45:20;;;;;;;59.75;28.02;;;6.10;85.10;;;;;;5055816;28;20060;-41
2021/11/19 10:48:11;;;;;;;60.40;28.10;;;6.20;85.50;;;;;;5055749;28;20068;-41
2021/11/19 10:51:20;;;;;;;52.95;29.58;;;6.30;85.40;;;;;;5055928;28;20467;-37
2021/11/19 10:54:24;;;;;;;60.30;29.15;;;6.30;85.20;;;;;;5053720;28;20441;-40
2021/11/19 10:56:51;;;;;;;49.08;25.02;;;6.30;84.90;;;;;;5052086;28;20044;-35
2021/11/19 10:59:22;;;;;;;59.17;27.27;;;6.40;84.90;;;;;;5055218;28;20052;-35
2021/11/19 11:02:14;;;;;;;55.00;28.35;;;6.40;85.00;;;;;;5055086;28;20052;-35
2021/11/19 11:04:41;;;;;;;48.33;24.85;;;6.40;84.80;;;;;;5056170;28;20091;-37
2021/11/19 11:07:23;;;;;;;50.90;27.13;;;6.40;84.70;;;;;;5055528;28;20317;-37
2021/11/19 11:09:54;;;;;;;49.00;26.10;;;6.40;84.90;;;;;;5055539;28;20044;-36
2021/11/19 11:12:30;;;;;;;59.70;28.48;;;6.40;85.00;;;;;;5055385;28;20396;-37
2021/11/19 11:15:19;;;;;;;50.70;26.38;;;6.40;85.00;;;;;;5055653;28;20041;-35
2021/11/19 11:18:09;;;;;;;46.67;25.70;;;6.50;85.00;;;;;;5055569;28;20025;-37
2021/11/19 11:20:52;;;;;;;52.03;26.95;;;6.50;84.70;;;;;;5055530;28;20029;-38
2021/11/19 11:23:33;;;;;;;47.70;25.90;;;6.50;84.70;;;;;;5055639;28;20086;-38
2021/11/19 11:26:08;;;;;;;49.33;24.20;;;6.40;84.40;;;;;;5055374;28;20146;-38
2021/11/19 11:28:45;;;;;;;48.85;25.50;;;6.40;84.70;;;;;;5055519;28;20033;-38
2021/11/19 11:31:42;;;;;;;44.38;24.33;;;6.40;84.60;;;;;;5054992;28;20036;-38
2021/11/19 11:34:34;;;;;;;45.78;24.10;;;6.40;84.80;;;;;;5055717;28;20033;-36
2021/11/19 11:37:11;;;;;;;45.45;23.92;;;6.40;84.90;;;;;;5055086;28;20116;-37
2021/11/19 11:40:01;;;;;;;49.08;24.88;;;6.40;84.90;;;;;;5055578;28;20380;-37
2021/11/19 11:42:40;;;;;;;44.88;24.90;;;6.40;84.90;;;;;;5054900;28;20025;-36
2021/11/19 11:45:35;;;;;;;45.47;25.20;;;6.30;84.80;;;;;;5055498;28;20037;-36
2021/11/19 11:48:14;;;;;;;53.05;26.42;;;6.30;85.10;;;;;;5055094;28;20024;-37
2021/11/19 11:50:57;;;;;;;49.35;24.25;;;6.40;85.50;;;;;;5054938;28;20028;-38
2021/11/19 11:53:28;;;;;;;52.40;25.38;;;6.40;85.40;;;;;;5054885;28;20025;-39
2021/11/19 11:56:03;;;;;;;42.83;23.00;;;6.40;85.60;;;;;;5054428;28;20029;-38
2021/11/19 11:58:51;;;;;;;42.47;23.08;;;6.40;85.20;;;;;;5055306;28;20048;-37
2021/11/19 12:01:50;;;;;;;39.20;21.20;;;6.30;85.00;;;;;;5055096;28;20321;-38
2021/11/19 12:04:47;;;;;;;45.80;23.63;;;6.40;85.00;;;;;;5055129;28;20029;-36
2021/11/19 12:07:26;;;;;;;46.63;23.75;;;6.40;85.20;;;;;;5054925;28;20029;-38
2021/11/19 12:10:20;;;;;;;45.22;24.27;;;6.40;85.20;;;;;;5055486;28;20039;-35
2021/11/19 12:13:01;;;;;;;47.58;24.27;;;6.30;85.00;;;;;;5054376;28;20033;-35
2021/11/19 12:15:47;;;;;;;46.03;23.25;;;6.30;85.00;;;;;;5051494;28;20029;-36
2021/11/19 12:18:34;;;;;;;43.65;22.38;;;6.30;85.00;;;;;;5054932;28;20317;-36
2021/11/19 12:21:08;;;;;;;42.17;22.40;;;6.30;85.20;;;;;;5054680;28;20033;-37
2021/11/19 12:23:47;;;;;;;46.25;24.60;;;6.30;85.50;;;;;;5054849;28;20025;-38
2021/11/19 12:26:27;;;;;;;46.58;24.02;;;6.20;85.70;;;;;;5053715;28;20036;-36
2021/11/19 12:29:28;;;;;;;40.70;22.95;;;6.20;86.00;;;;;;5054995;28;20033;-38
2021/11/19 12:32:00;;;;;;;45.47;22.35;;;6.20;85.90;;;;;;5054177;28;20040;-38
2021/11/19 12:34:39;;;;;;;40.17;23.10;;;6.20;86.00;;;;;;5054850;28;20149;-38
2021/11/19 12:37:15;;;;;;;49.55;25.35;;;6.20;86.30;;;;;;5054209;28;20039;-34
2021/11/19 12:39:44;;;;;;;36.55;21.35;;;6.10;86.30;;;;;;5054857;28;20048;-34
2021/11/19 12:42:34;;;;;;;41.60;22.52;;;6.10;86.60;;;;;;5054075;28;20025;-36
2021/11/19 12:45:26;;;;;;;37.28;20.38;;;6.10;86.60;;;;;;5055387;28;20041;-34
2021/11/19 12:48:23;;;;;;;47.03;23.98;;;6.10;86.60;;;;;;5058133;28;20026;-36
2021/11/19 12:51:17;;;;;;;40.53;21.13;;;6.10;86.60;;;;;;5058163;28;20305;-34
2021/11/19 12:54:08;;;;;;;49.08;25.88;;;6.10;86.60;;;;;;5057698;28;20055;-34
2021/11/19 12:56:53;;;;;;;40.70;22.08;;;6.10;86.60;;;;;;5057844;28;20036;-35
2021/11/19 12:59:21;;;;;;;43.72;27.30;;;6.10;86.70;;;;;;5058322;28;20048;-37
2021/11/19 13:02:22;;;;;;;39.10;21.30;;;6.10;86.80;;;;;;5057523;28;20025;-36
2021/11/19 13:04:58;;;;;;;39.88;22.45;;;6.00;86.60;;;;;;5055493;28;20321;-35
2021/11/19 13:07:37;;;;;;;42.40;22.40;;;6.00;86.90;;;;;;5057362;28;20036;-35
2021/11/19 13:10:22;;;;;;;39.38;22.65;;;6.00;87.00;;;;;;5058105;28;20124;-35